createdAt,value
2019-01-10T00:00:43.470Z,96426.03
2019-01-10T00:03:09.292Z,96422.66
2019-01-10T00:05:35.109Z,96425.52
2019-01-10T00:08:02.897Z,96418.50
2019-01-10T00:10:28.741Z,96432.01
2019-01-10T00:12:54.648Z,96437.19
2019-01-10T00:15:20.599Z,96441.09
2019-01-10T00:17:46.436Z,96445.80
2019-01-10T00:20:14.238Z,96445.77
2019-01-10T00:22:40.313Z,96446.54
2019-01-10T00:25:08.505Z,96447.05
2019-01-10T00:27:34.319Z,96451.73
2019-01-10T00:30:00.211Z,96447.83
2019-01-10T00:32:26.045Z,96448.34
2019-01-10T00:34:51.879Z,96450.16
2019-01-10T00:37:17.737Z,96455.09
2019-01-10T00:39:43.582Z,96460.05
2019-01-10T00:42:09.438Z,96467.62
2019-01-10T00:44:36.512Z,96463.48
2019-01-10T00:47:02.341Z,96469.43
2019-01-10T00:49:28.192Z,96466.58
2019-01-10T00:51:54.019Z,96481.08
2019-01-10T00:54:19.853Z,96479.78
2019-01-10T00:56:45.679Z,96479.81
2019-01-10T00:59:11.525Z,96480.80
2019-01-10T01:01:37.342Z,96481.58
2019-01-10T01:04:03.407Z,96480.48
2019-01-10T01:06:29.321Z,96484.63
2019-01-10T01:08:55.165Z,96482.54
2019-01-10T01:11:20.980Z,96480.78
2019-01-10T01:13:46.824Z,96478.70
2019-01-10T01:16:12.656Z,96480.27
2019-01-10T01:18:38.499Z,96489.34
2019-01-10T01:21:04.431Z,96488.84
2019-01-10T01:23:30.313Z,96488.85
2019-01-10T01:25:56.131Z,96503.14
2019-01-10T01:28:21.963Z,96499.48
2019-01-10T01:30:47.911Z,96502.61
2019-01-10T01:33:13.740Z,96507.27
2019-01-10T01:35:39.574Z,96515.78
2019-01-10T01:38:05.423Z,96516.63
2019-01-10T01:40:31.243Z,96525.70
2019-01-10T01:42:57.071Z,96525.19
2019-01-10T01:45:22.917Z,96525.47
2019-01-10T01:47:48.734Z,96529.61
2019-01-10T01:50:16.778Z,96536.10
2019-01-10T01:52:42.641Z,96532.98
2019-01-10T01:55:08.765Z,96541.56
2019-01-10T01:57:34.603Z,96536.11
2019-01-10T02:00:00.449Z,96534.29
2019-01-10T02:02:26.282Z,96543.91
2019-01-10T02:04:52.216Z,96539.49
2019-01-10T02:07:18.060Z,96552.46
2019-01-10T02:09:43.982Z,96554.53
2019-01-10T02:12:09.898Z,96555.56
2019-01-10T02:14:35.750Z,96553.50
2019-01-10T02:17:02.622Z,96553.68
2019-01-10T02:19:28.448Z,96562.57
2019-01-10T02:21:54.289Z,96561.83
2019-01-10T02:24:20.131Z,96565.95
2019-01-10T02:26:45.958Z,96577.13
2019-01-10T02:29:11.805Z,96570.20
2019-01-10T02:31:37.625Z,96584.68
2019-01-10T02:34:03.602Z,96575.07
2019-01-10T02:36:29.408Z,96581.62
2019-01-10T02:38:55.263Z,96588.93
2019-01-10T02:41:21.096Z,96591.23
2019-01-10T02:43:46.937Z,96597.28
2019-01-10T02:46:12.771Z,96592.81
2019-01-10T02:48:38.729Z,96596.77
2019-01-10T02:51:04.526Z,96589.94
2019-01-10T02:53:30.350Z,96599.61
2019-01-10T02:55:56.182Z,96600.88
2019-01-10T02:58:22.036Z,96602.98
2019-01-10T03:00:47.833Z,96601.20
2019-01-10T03:03:13.959Z,96602.48
2019-01-10T03:05:39.811Z,96601.45
2019-01-10T03:08:05.841Z,96609.19
2019-01-10T03:10:31.773Z,96607.63
2019-01-10T03:12:57.579Z,96610.55
2019-01-10T03:15:23.462Z,96603.47
2019-01-10T03:17:49.297Z,96595.74
2019-01-10T03:20:18.348Z,96601.70
2019-01-10T03:22:44.160Z,96600.34
2019-01-10T03:28:39.069Z,96601.37
2019-01-10T03:31:05.056Z,96602.92
2019-01-10T03:33:30.886Z,96597.20
2019-01-10T03:35:56.816Z,96599.57
2019-01-10T03:38:22.914Z,96592.80
2019-01-10T03:40:48.743Z,96594.37
2019-01-10T03:43:14.660Z,96595.14
2019-01-10T03:45:40.525Z,96596.94
2019-01-10T03:48:06.333Z,96597.97
2019-01-10T03:50:32.151Z,96599.36
2019-01-10T03:52:58.030Z,96603.45
2019-01-10T03:55:23.854Z,96618.07
2019-01-10T03:57:49.772Z,96610.78
2019-01-10T04:00:18.810Z,96609.51
2019-01-10T04:02:44.641Z,96614.99
2019-01-10T04:05:10.576Z,96605.12
2019-01-10T04:07:36.392Z,96611.33
2019-01-10T04:10:03.932Z,96616.03
2019-01-10T04:12:29.748Z,96614.72
2019-01-10T04:14:55.602Z,96621.31
2019-01-10T04:17:21.517Z,96616.85
2019-01-10T04:19:49.265Z,96625.27
2019-01-10T04:22:15.117Z,96625.22
2019-01-10T04:24:40.973Z,96629.88
2019-01-10T04:27:06.801Z,96629.11
2019-01-10T04:29:34.254Z,96639.05
2019-01-10T04:32:00.074Z,96629.23
2019-01-10T04:34:25.919Z,96638.52
2019-01-10T04:36:51.754Z,96636.70
2019-01-10T04:39:17.585Z,96633.14
2019-01-10T04:41:43.415Z,96642.88
2019-01-10T04:44:09.308Z,96636.25
2019-01-10T04:46:35.137Z,96647.10
2019-01-10T04:49:00.985Z,96644.01
2019-01-10T04:51:26.797Z,96641.19
2019-01-10T04:53:52.664Z,96646.52
2019-01-10T04:56:18.480Z,96668.95
2019-01-10T04:58:44.311Z,96656.72
2019-01-10T05:01:10.143Z,96656.30
2019-01-10T05:03:35.989Z,96669.08
2019-01-10T05:06:01.918Z,96668.32
2019-01-10T05:08:27.821Z,96668.58
2019-01-10T05:10:53.673Z,96662.87
2019-01-10T05:13:19.518Z,96670.30
2019-01-10T05:15:45.488Z,96675.84
2019-01-10T05:18:11.316Z,96685.66
2019-01-10T05:20:37.150Z,96686.25
2019-01-10T05:23:02.993Z,96687.16
2019-01-10T05:25:28.832Z,96690.88
2019-01-10T05:27:54.647Z,96697.34
2019-01-10T05:30:21.298Z,96697.25
2019-01-10T05:32:47.140Z,96698.05
2019-01-10T05:35:13.007Z,96699.66
2019-01-10T05:37:38.823Z,96699.17
2019-01-10T05:40:08.267Z,96710.89
2019-01-10T05:42:34.097Z,96716.84
2019-01-10T05:44:59.962Z,96710.38
2019-01-10T05:47:25.807Z,96717.09
2019-01-10T05:49:51.658Z,96718.16
2019-01-10T05:52:17.525Z,96728.01
2019-01-10T05:54:43.397Z,96720.30
2019-01-10T05:57:09.252Z,96729.39
2019-01-10T05:59:35.105Z,96732.47
2019-01-10T06:02:00.948Z,96735.11
2019-01-10T06:04:26.789Z,96741.36
2019-01-10T06:06:52.638Z,96739.56
2019-01-10T06:09:18.972Z,96738.77
2019-01-10T06:11:44.802Z,96755.09
2019-01-10T06:14:10.639Z,96739.27
2019-01-10T06:16:36.473Z,96752.73
2019-01-10T06:19:02.445Z,96753.52
2019-01-10T06:21:28.497Z,96758.20
2019-01-10T06:23:54.389Z,96763.66
2019-01-10T06:26:20.475Z,96770.66
2019-01-10T06:28:46.480Z,96775.08
2019-01-10T06:31:12.500Z,96777.14
2019-01-10T06:33:38.605Z,96786.80
2019-01-10T06:36:04.662Z,96790.44
2019-01-10T06:38:30.481Z,96814.59
2019-01-10T06:40:56.302Z,96809.12
2019-01-10T06:43:22.124Z,96803.12
2019-01-10T06:45:47.986Z,96808.56
2019-01-10T06:48:13.832Z,96812.48
2019-01-10T06:50:39.658Z,96818.23
2019-01-10T06:53:05.478Z,96823.98
2019-01-10T06:55:31.451Z,96826.36
2019-01-10T06:57:57.278Z,96829.98
2019-01-10T07:00:23.134Z,96833.84
2019-01-10T07:02:49.051Z,96833.08
2019-01-10T07:05:15.040Z,96847.61
2019-01-10T07:07:40.885Z,96836.95
2019-01-10T07:10:10.556Z,96851.00
2019-01-10T07:12:36.389Z,96859.05
2019-01-10T07:15:02.418Z,96857.75
2019-01-10T07:17:28.259Z,96866.83
2019-01-10T07:19:54.089Z,96866.34
2019-01-10T07:22:19.934Z,96865.78
2019-01-10T07:24:49.810Z,96868.47
2019-01-10T07:27:15.847Z,96872.30
2019-01-10T07:29:41.697Z,96876.70
2019-01-10T07:32:07.543Z,96878.24
2019-01-10T07:34:33.390Z,96877.00
2019-01-10T07:36:59.321Z,96881.38
2019-01-10T07:39:25.152Z,96884.77
2019-01-10T07:41:50.994Z,96882.72
2019-01-10T07:44:21.062Z,96886.56
2019-01-10T07:46:46.882Z,96892.30
2019-01-10T07:49:12.738Z,96891.78
2019-01-10T07:51:44.699Z,96893.82
2019-01-10T07:54:10.732Z,96894.58
2019-01-10T07:56:36.577Z,96898.23
2019-01-10T07:59:02.418Z,96902.46
2019-01-10T08:01:28.305Z,96903.72
2019-01-10T08:03:54.134Z,96909.41
2019-01-10T08:06:19.973Z,96920.08
2019-01-10T08:08:45.816Z,96917.25
2019-01-10T08:11:11.649Z,96922.67
2019-01-10T08:13:37.826Z,96926.62
2019-01-10T08:16:03.759Z,96936.99
2019-01-10T08:18:29.578Z,96930.02
2019-01-10T08:20:55.431Z,96938.05
2019-01-10T08:23:21.291Z,96948.40
2019-01-10T08:25:47.137Z,96946.09
2019-01-10T08:28:13.005Z,96950.89
2019-01-10T08:30:38.862Z,96950.89
2019-01-10T08:33:04.768Z,96967.45
2019-01-10T08:35:30.811Z,96964.83
2019-01-10T08:37:56.741Z,96967.41
2019-01-10T08:40:22.620Z,96966.64
2019-01-10T08:42:48.544Z,96974.39
2019-01-10T08:45:21.517Z,96988.48
2019-01-10T08:47:42.362Z,96976.50
2019-01-10T08:50:11.887Z,96981.77
2019-01-10T08:52:37.717Z,96979.15
2019-01-10T08:55:05.181Z,96983.27
2019-01-10T08:57:31.004Z,96979.05
2019-01-10T08:59:56.829Z,96987.66
2019-01-10T09:02:22.706Z,96992.36
2019-01-10T09:04:48.556Z,96986.55
2019-01-10T09:07:14.405Z,96988.71
2019-01-10T09:09:40.251Z,96990.55
2019-01-10T09:12:06.187Z,96988.17
2019-01-10T09:14:32.032Z,96991.16
2019-01-10T09:16:57.857Z,96994.82
2019-01-10T09:19:23.690Z,97004.66
2019-01-10T09:21:49.531Z,96998.48
2019-01-10T09:24:15.373Z,97005.27
2019-01-10T09:26:41.213Z,97009.83
2019-01-10T09:29:07.040Z,97012.59
2019-01-10T09:31:32.897Z,97007.89
2019-01-10T09:33:58.727Z,97013.80
2019-01-10T09:36:24.567Z,97013.92
2019-01-10T09:38:50.397Z,97024.23
2019-01-10T09:41:16.231Z,97030.84
2019-01-10T09:43:42.182Z,97029.24
2019-01-10T09:46:07.989Z,97034.61
2019-01-10T09:48:33.809Z,97034.01
2019-01-10T09:50:59.650Z,97037.96
2019-01-10T09:53:25.473Z,97047.47
2019-01-10T09:55:51.319Z,97047.36
2019-01-10T09:58:17.141Z,97044.09
2019-01-10T10:00:42.973Z,97047.77
2019-01-10T10:03:08.810Z,97049.78
2019-01-10T10:05:34.671Z,97043.59
2019-01-10T10:08:00.498Z,97055.75
2019-01-10T10:10:26.351Z,97044.02
2019-01-10T10:12:52.280Z,97053.42
2019-01-10T10:15:18.390Z,97049.60
2019-01-10T10:17:44.224Z,97047.44
2019-01-10T10:20:14.803Z,97044.48
2019-01-10T10:22:40.696Z,97051.06
2019-01-10T10:25:06.621Z,97056.09
2019-01-10T10:27:32.452Z,97054.53
2019-01-10T10:29:58.310Z,97052.83
2019-01-10T10:32:24.137Z,97051.42
2019-01-10T10:34:49.995Z,97053.20
2019-01-10T10:37:15.951Z,97052.20
2019-01-10T10:39:41.797Z,97055.70
2019-01-10T10:42:07.611Z,97061.97
2019-01-10T10:44:33.442Z,97059.03
2019-01-10T10:46:59.282Z,97060.60
2019-01-10T10:49:25.311Z,97066.15
2019-01-10T10:51:51.245Z,97063.23
2019-01-10T10:54:17.093Z,97071.97
2019-01-10T10:56:42.918Z,97071.81
2019-01-10T10:59:08.920Z,97067.37
2019-01-10T11:01:34.865Z,97061.03
2019-01-10T11:04:00.807Z,97067.39
2019-01-10T11:06:26.634Z,97069.80
2019-01-10T11:08:52.458Z,97068.72
2019-01-10T11:11:18.294Z,97071.41
2019-01-10T11:13:44.258Z,97072.03
2019-01-10T11:16:10.753Z,97058.97
2019-01-10T11:18:36.822Z,97066.07
2019-01-10T11:21:02.933Z,97069.53
2019-01-10T11:23:28.796Z,97068.45
2019-01-10T11:25:54.668Z,97068.48
2019-01-10T11:28:20.498Z,97061.95
2019-01-10T11:30:46.463Z,97064.33
2019-01-10T11:33:12.329Z,97061.78
2019-01-10T11:35:38.163Z,97067.69
2019-01-10T11:38:04.013Z,97067.63
2019-01-10T11:40:30.043Z,97062.84
2019-01-10T11:42:55.898Z,97062.84
2019-01-10T11:45:22.036Z,97064.60
2019-01-10T11:47:47.887Z,97064.60
2019-01-10T11:50:14.900Z,97073.49
2019-01-10T11:52:40.737Z,97066.50
2019-01-10T11:55:07.680Z,97068.06
2019-01-10T11:57:33.530Z,97064.44
2019-01-10T11:59:59.359Z,97070.45
2019-01-10T12:02:25.191Z,97066.57
2019-01-10T12:04:51.010Z,97073.08
2019-01-10T12:07:16.837Z,97064.66
2019-01-10T12:09:42.684Z,97070.20
2019-01-10T12:12:08.544Z,97070.55
2019-01-10T12:14:34.681Z,97071.72
2019-01-10T12:17:00.532Z,97064.80
2019-01-10T12:19:26.368Z,97068.83
2019-01-10T12:21:52.224Z,97068.56
2019-01-10T12:24:18.096Z,97080.26
2019-01-10T12:26:43.921Z,97068.97
2019-01-10T12:29:09.759Z,97071.56
2019-01-10T12:31:35.573Z,97072.63
2019-01-10T12:34:01.418Z,97074.22
2019-01-10T12:36:27.262Z,97067.13
2019-01-10T12:38:53.124Z,97068.23
2019-01-10T12:41:18.986Z,97001.80
2019-01-10T12:43:44.841Z,97078.85
2019-01-10T12:46:10.672Z,97078.85
2019-01-10T12:48:36.610Z,97076.73
2019-01-10T12:51:02.650Z,97073.52
2019-01-10T12:53:28.500Z,97086.06
2019-01-10T12:55:54.377Z,97086.86
2019-01-10T12:58:20.246Z,97090.57
2019-01-10T13:00:46.079Z,97093.04
2019-01-10T13:03:11.916Z,97089.42
2019-01-10T13:05:37.766Z,97088.34
2019-01-10T13:08:04.142Z,97090.00
2019-01-10T13:10:30.160Z,97084.74
2019-01-10T13:12:56.009Z,97086.86
2019-01-10T13:15:23.484Z,97091.60
2019-01-10T13:17:49.306Z,97097.65
2019-01-10T13:20:15.130Z,97098.46
2019-01-10T13:22:40.950Z,97098.55
2019-01-10T13:25:15.181Z,97105.73
2019-01-10T13:27:41.094Z,97120.50
2019-01-10T13:30:13.427Z,97116.11
2019-01-10T13:32:39.286Z,97114.60
2019-01-10T13:35:06.936Z,97122.14
2019-01-10T13:37:32.860Z,97125.67
2019-01-10T13:39:58.800Z,97129.77
2019-01-10T13:42:24.636Z,97125.70
2019-01-10T13:44:50.488Z,97123.08
2019-01-10T13:47:16.323Z,97116.89
2019-01-10T13:49:42.513Z,97121.38
2019-01-10T13:52:08.741Z,97125.20
2019-01-10T13:54:34.589Z,97124.48
2019-01-10T13:57:00.429Z,97129.61
2019-01-10T13:59:26.255Z,97133.58
2019-01-10T14:01:52.091Z,97131.66
2019-01-10T14:04:17.938Z,97135.55
2019-01-10T14:06:43.804Z,97134.59
2019-01-10T14:09:09.765Z,97141.50
2019-01-10T14:11:35.599Z,97140.67
2019-01-10T14:14:01.433Z,97147.73
2019-01-10T14:16:27.355Z,97144.47
2019-01-10T14:18:53.893Z,97147.30
2019-01-10T14:21:19.920Z,97147.27
2019-01-10T14:23:45.768Z,97154.72
2019-01-10T14:26:11.691Z,97154.66
2019-01-10T14:28:37.512Z,97154.95
2019-01-10T14:31:03.540Z,97157.55
2019-01-10T14:33:29.493Z,97158.48
2019-01-10T14:35:55.337Z,97158.80
2019-01-10T14:38:21.277Z,97165.73
2019-01-10T14:40:47.205Z,97169.34
2019-01-10T14:43:13.034Z,97167.77
2019-01-10T14:45:38.873Z,97176.11
2019-01-10T14:48:04.810Z,97177.61
2019-01-10T14:50:30.632Z,97189.73
2019-01-10T14:52:56.480Z,97191.27
2019-01-10T14:55:22.320Z,97188.11
2019-01-10T14:57:48.252Z,97191.96
2019-01-10T15:00:17.225Z,97194.13
2019-01-10T15:02:43.063Z,97191.48
2019-01-10T15:05:08.990Z,97192.94
2019-01-10T15:07:34.966Z,97202.63
2019-01-10T15:10:01.021Z,97204.55
2019-01-10T15:12:26.889Z,97202.39
2019-01-10T15:14:52.729Z,97207.02
2019-01-10T15:17:18.545Z,97208.60
2019-01-10T15:19:44.405Z,97209.70
2019-01-10T15:22:10.263Z,97214.14
2019-01-10T15:24:36.101Z,97216.11
2019-01-10T15:27:01.924Z,97215.40
2019-01-10T15:29:27.766Z,97216.97
2019-01-10T15:31:53.614Z,97230.09
2019-01-10T15:34:19.462Z,97223.19
2019-01-10T15:36:45.434Z,97228.88
2019-01-10T15:39:11.401Z,97229.73
2019-01-10T15:41:37.248Z,97225.17
2019-01-10T15:44:03.192Z,97232.17
2019-01-10T15:46:29.024Z,97230.97
2019-01-10T15:48:54.880Z,97232.27
2019-01-10T15:51:20.736Z,97232.19
2019-01-10T15:53:46.620Z,97232.55
2019-01-10T15:56:12.473Z,97232.55
2019-01-10T15:58:38.332Z,97237.52
2019-01-10T16:01:04.488Z,97236.30
2019-01-10T16:03:30.346Z,97235.30
2019-01-10T16:05:56.186Z,97238.22
2019-01-10T16:08:22.148Z,97238.22
2019-01-10T16:10:48.678Z,97247.63
2019-01-10T16:13:14.525Z,97247.30
2019-01-10T16:15:40.382Z,97247.86
2019-01-10T16:18:06.221Z,97254.59
2019-01-10T16:20:32.077Z,97263.75
2019-01-10T16:22:57.915Z,97260.70
2019-01-10T16:25:23.755Z,97264.81
2019-01-10T16:27:49.694Z,97267.84
2019-01-10T16:30:20.774Z,97260.19
2019-01-10T16:32:46.609Z,97267.13
2019-01-10T16:35:12.480Z,97262.73
2019-01-10T16:37:38.320Z,97263.75
2019-01-10T16:40:07.061Z,97271.58
2019-01-10T16:42:32.883Z,97270.23
2019-01-10T16:44:58.744Z,97270.84
2019-01-10T16:47:24.641Z,97268.94
2019-01-10T16:49:52.458Z,97269.45
2019-01-10T16:52:18.303Z,97267.74
2019-01-10T16:54:44.141Z,97263.52
2019-01-10T16:57:09.939Z,97268.15
2019-01-10T16:59:35.955Z,97270.44
2019-01-10T17:02:01.773Z,97270.28
2019-01-10T17:04:27.635Z,97270.06
2019-01-10T17:06:53.477Z,97269.55
2019-01-10T17:09:19.328Z,97271.25
2019-01-10T17:11:45.187Z,97268.66
2019-01-10T17:14:11.024Z,97273.72
2019-01-10T17:16:36.862Z,97274.63
2019-01-10T17:19:03.159Z,97279.64
2019-01-10T17:21:28.999Z,97285.34
2019-01-10T17:23:54.865Z,97280.48
2019-01-10T17:26:20.683Z,97289.73
2019-01-10T17:28:50.595Z,97290.74
2019-01-10T17:31:16.375Z,97287.92
2019-01-10T17:33:42.232Z,97296.98
2019-01-10T17:36:08.064Z,97297.61
2019-01-10T17:38:33.892Z,97292.20
2019-01-10T17:40:59.755Z,97304.38
2019-01-10T17:43:25.596Z,97296.48
2019-01-10T17:45:51.450Z,97297.41
2019-01-10T17:48:17.240Z,97301.81
2019-01-10T17:50:43.096Z,97304.58
2019-01-10T17:53:09.025Z,97304.46
2019-01-10T17:55:34.885Z,97305.81
2019-01-10T17:58:00.832Z,97310.48
2019-01-10T18:00:28.402Z,97309.10
2019-01-10T18:02:54.242Z,97315.02
2019-01-10T18:05:20.179Z,97318.72
2019-01-10T18:07:46.020Z,97319.16
2019-01-10T18:10:14.981Z,97325.30
2019-01-10T18:12:41.104Z,97321.84
2019-01-10T18:15:09.750Z,97319.28
2019-01-10T18:17:35.599Z,97327.30
2019-01-10T18:20:01.555Z,97332.09
2019-01-10T18:22:27.410Z,97326.34
2019-01-10T18:24:53.259Z,97324.75
2019-01-10T18:27:19.100Z,97334.02
2019-01-10T18:29:45.075Z,97331.65
2019-01-10T18:32:10.902Z,97329.95
2019-01-10T18:34:37.065Z,97334.91
2019-01-10T18:37:03.021Z,97334.63
2019-01-10T18:39:28.917Z,97343.65
2019-01-10T18:41:54.768Z,97345.66
2019-01-10T18:44:20.633Z,97348.24
2019-01-10T18:46:46.466Z,97339.62
2019-01-10T18:49:12.291Z,97348.89
2019-01-10T18:51:38.139Z,97338.89
2019-01-10T18:54:04.412Z,97339.23
2019-01-10T18:56:30.242Z,97341.76
2019-01-10T18:58:56.064Z,97350.02
2019-01-10T19:01:22.344Z,97350.75
2019-01-10T19:03:48.541Z,97352.52
2019-01-10T19:06:14.350Z,97354.66
2019-01-10T19:08:40.282Z,97354.60
2019-01-10T19:11:06.138Z,97358.27
2019-01-10T19:13:31.994Z,97363.00
2019-01-10T19:15:57.837Z,97356.86
2019-01-10T19:18:23.685Z,97358.55
2019-01-10T19:20:49.527Z,97365.59
2019-01-10T19:23:15.374Z,97363.90
2019-01-10T19:25:41.237Z,97363.67
2019-01-10T19:28:07.115Z,97360.77
2019-01-10T19:30:32.960Z,97360.77
2019-01-10T19:32:58.806Z,97367.70
2019-01-10T19:35:24.740Z,97374.77
2019-01-10T19:37:50.797Z,97371.45
2019-01-10T19:40:19.253Z,97369.22
2019-01-10T19:42:45.220Z,97369.30
2019-01-10T19:45:13.967Z,97374.91
2019-01-10T19:47:39.811Z,97372.70
2019-01-10T19:50:09.500Z,97373.05
2019-01-10T19:52:35.538Z,97373.20
2019-01-10T19:55:01.402Z,97370.67
2019-01-10T19:57:27.245Z,97378.29
2019-01-10T19:59:53.216Z,97380.09
2019-01-10T20:02:21.104Z,97384.14
2019-01-10T20:04:46.961Z,97381.31
2019-01-10T20:07:12.803Z,97378.95
2019-01-10T20:09:38.640Z,97381.88
2019-01-10T20:12:04.472Z,97378.84
2019-01-10T20:14:30.336Z,97377.61
2019-01-10T20:16:56.206Z,97374.80
2019-01-10T20:19:22.035Z,97382.50
2019-01-10T20:21:50.659Z,97378.61
2019-01-10T20:24:16.511Z,97375.28
2019-01-10T20:26:42.387Z,97373.88
2019-01-10T20:29:08.220Z,97376.06
2019-01-10T20:31:34.160Z,97377.93
2019-01-10T20:34:00.084Z,97374.30
2019-01-10T20:36:25.946Z,97379.58
2019-01-10T20:38:51.806Z,97382.39
2019-01-10T20:41:17.667Z,97376.94
2019-01-10T20:43:43.492Z,97389.00
2019-01-10T20:46:09.305Z,97383.56
2019-01-10T20:48:35.174Z,97377.66
2019-01-10T20:51:00.988Z,97378.95
2019-01-10T20:53:26.840Z,97389.81
2019-01-10T20:55:52.692Z,97386.95
2019-01-10T20:58:18.521Z,97382.49
2019-01-10T21:00:44.367Z,97378.77
2019-01-10T21:03:10.450Z,97384.73
2019-01-10T21:05:36.299Z,97389.19
2019-01-10T21:08:02.242Z,97386.66
2019-01-10T21:10:28.173Z,97383.62
2019-01-10T21:12:54.037Z,97396.08
2019-01-10T21:15:22.877Z,97393.98
2019-01-10T21:17:49.321Z,97389.13
2019-01-10T21:20:15.389Z,97390.98
2019-01-10T21:22:41.367Z,97387.45
2019-01-10T21:25:09.307Z,97387.45
2019-01-10T21:27:35.159Z,97391.55
2019-01-10T21:30:01.211Z,97393.01
2019-01-10T21:32:27.071Z,97391.33
2019-01-10T21:34:52.899Z,97398.53
2019-01-10T21:37:18.753Z,97400.96
2019-01-10T21:39:44.594Z,97403.84
2019-01-10T21:42:10.507Z,97409.96
2019-01-10T21:44:36.321Z,97410.03
2019-01-10T21:47:02.319Z,97410.47
2019-01-10T21:49:28.274Z,97411.70
2019-01-10T21:51:54.107Z,97405.86
2019-01-10T21:54:20.150Z,97408.16
2019-01-10T21:56:46.004Z,97410.41
2019-01-10T21:59:11.844Z,97413.22
2019-01-10T22:01:37.716Z,97412.55
2019-01-10T22:04:03.825Z,97405.12
2019-01-10T22:06:29.641Z,97411.84
2019-01-10T22:08:55.466Z,97411.34
2019-01-10T22:11:21.365Z,97408.25
2019-01-10T22:13:47.233Z,97412.86
2019-01-10T22:16:13.055Z,97411.98
2019-01-10T22:18:41.576Z,97407.52
2019-01-10T22:21:06.666Z,97405.95
2019-01-10T22:23:32.534Z,97407.38
2019-01-10T22:25:58.398Z,97406.95
2019-01-10T22:28:26.133Z,97405.12
2019-01-10T22:30:51.982Z,97407.59
2019-01-10T22:33:17.807Z,97401.48
2019-01-10T22:35:43.649Z,97408.09
2019-01-10T22:38:09.501Z,97403.06
2019-01-10T22:40:35.464Z,97411.76
2019-01-10T22:43:01.466Z,97408.59
2019-01-10T22:45:27.284Z,97404.56
2019-01-10T22:47:53.097Z,97407.81
2019-01-10T22:50:20.248Z,97402.41
2019-01-10T22:52:46.159Z,97402.48
2019-01-10T22:55:13.164Z,97396.39
2019-01-10T22:57:39.088Z,97403.43
2019-01-10T23:00:11.482Z,97396.29
2019-01-10T23:02:37.510Z,97396.81
2019-01-10T23:05:03.749Z,97395.74
2019-01-10T23:07:29.675Z,97397.73
2019-01-10T23:09:59.337Z,97395.78
2019-01-10T23:12:29.766Z,97395.87
2019-01-10T23:14:55.604Z,97391.19
2019-01-10T23:17:23.347Z,97390.03
2019-01-10T23:19:49.300Z,97388.55
2019-01-10T23:22:15.292Z,97390.34
2019-01-10T23:24:41.233Z,97392.98
2019-01-10T23:27:07.075Z,97385.94
2019-01-10T23:29:33.006Z,97393.34
2019-01-10T23:32:01.545Z,97389.73
2019-01-10T23:34:27.372Z,97391.11
2019-01-10T23:36:53.303Z,97401.31
2019-01-10T23:39:19.543Z,97402.90
2019-01-10T23:41:45.401Z,97400.79
2019-01-10T23:44:11.222Z,97396.91
2019-01-10T23:46:37.040Z,97401.44
2019-01-10T23:49:03.099Z,97395.08
2019-01-10T23:51:28.947Z,97395.95
2019-01-10T23:53:54.774Z,97402.20
2019-01-10T23:56:20.614Z,97404.64
2019-01-10T23:58:46.447Z,97413.98
